createdAt,value
2022-11-14T00:07:58.162Z,15
2022-11-14T00:18:02.952Z,13
2022-11-14T00:28:07.439Z,12
2022-11-14T00:38:14.033Z,15
2022-11-14T00:48:21.233Z,18
2022-11-14T00:58:29.059Z,12
2022-11-14T01:08:33.184Z,13
2022-11-14T01:18:39.486Z,11
2022-11-14T01:28:45.839Z,13
2022-11-14T01:38:51.028Z,11
2022-11-14T01:48:58.581Z,12
2022-11-14T01:59:03.653Z,12
2022-11-14T02:09:09.195Z,13
2022-11-14T02:19:15.608Z,10
2022-11-14T02:29:21.443Z,12
2022-11-14T02:39:27.556Z,11
2022-11-14T02:49:34.074Z,8
2022-11-14T02:59:39.652Z,12
2022-11-14T03:09:43.658Z,11
2022-11-14T03:19:50.450Z,10
2022-11-14T03:29:55.939Z,12
2022-11-14T03:40:02.202Z,11
2022-11-14T03:50:08.587Z,9
2022-11-14T04:00:16.019Z,11
2022-11-14T04:10:20.855Z,10
2022-11-14T04:20:29.595Z,11
2022-11-14T04:30:37.105Z,11
2022-11-14T04:40:41.784Z,10
2022-11-14T04:50:48.969Z,12
2022-11-14T05:00:56.164Z,9
2022-11-14T05:11:00.032Z,10
2022-11-14T05:21:06.541Z,10
2022-11-14T05:31:11.924Z,10
2022-11-14T05:41:18.845Z,6
2022-11-14T05:51:23.137Z,8
2022-11-14T06:01:39.479Z,10
2022-11-14T06:11:34.025Z,6
2022-11-14T06:21:39.757Z,16
2022-11-14T06:31:45.060Z,10
2022-11-14T06:41:49.418Z,9
2022-11-14T06:51:55.708Z,8
2022-11-14T07:02:02.970Z,9
2022-11-14T07:12:07.538Z,13
2022-11-14T07:22:11.596Z,10
2022-11-14T07:32:17.884Z,11
2022-11-14T07:42:22.728Z,9
2022-11-14T07:52:28.729Z,8
2022-11-14T08:02:35.044Z,6
2022-11-14T08:12:42.205Z,7
2022-11-14T08:22:46.972Z,11
2022-11-14T08:32:53.044Z,11
2022-11-14T08:42:59.466Z,5
2022-11-14T08:53:05.832Z,9
2022-11-14T09:03:12.004Z,8
2022-11-14T09:13:17.867Z,6
2022-11-14T09:23:24.204Z,8
2022-11-14T09:33:29.380Z,4
2022-11-14T09:43:34.919Z,4
2022-11-14T09:53:40.508Z,9
2022-11-14T10:03:47.258Z,6
2022-11-14T10:13:51.906Z,4
2022-11-14T10:23:57.368Z,4
2022-11-14T10:34:07.779Z,6
2022-11-14T10:44:22.129Z,4
2022-11-14T10:54:27.189Z,5
2022-11-14T11:24:45.395Z,4
2022-11-14T11:34:50.890Z,6
2022-11-14T11:45:44.650Z,5
2022-11-14T11:55:50.616Z,7
2022-11-14T12:05:55.947Z,7
2022-11-14T12:16:02.256Z,9
2022-11-14T12:26:08.587Z,5
2022-11-14T12:36:14.082Z,5
2022-11-14T12:46:23.011Z,4
2022-11-14T12:56:25.853Z,5
2022-11-14T13:06:30.123Z,6
2022-11-14T13:16:36.714Z,7
2022-11-14T13:26:40.966Z,10
2022-11-14T13:36:52.978Z,5
2022-11-14T13:46:52.156Z,5
2022-11-14T13:56:56.126Z,6
2022-11-14T14:07:02.650Z,7
2022-11-14T14:17:06.873Z,7
2022-11-14T14:27:10.015Z,8
2022-11-14T14:37:15.966Z,6
2022-11-14T14:47:20.676Z,5
2022-11-14T14:57:25.901Z,9
2022-11-14T15:07:31.022Z,9
2022-11-14T15:17:36.027Z,7
2022-11-14T15:27:39.805Z,9
2022-11-14T15:37:44.874Z,8
2022-11-14T15:47:50.899Z,9
2022-11-14T15:58:21.242Z,10
2022-11-14T16:08:22.904Z,11
2022-11-14T16:18:27.785Z,18
2022-11-14T16:28:33.631Z,16
2022-11-14T16:38:39.453Z,16
2022-11-14T16:48:44.984Z,26
2022-11-14T16:58:51.655Z,17
2022-11-14T17:08:57.544Z,11
2022-11-14T17:19:09.722Z,13
2022-11-14T17:29:10.893Z,8
2022-11-14T17:39:15.374Z,13
2022-11-14T17:49:21.191Z,7
2022-11-14T17:59:29.270Z,12
2022-11-14T18:09:35.275Z,12
2022-11-14T18:19:39.182Z,10
2022-11-14T18:29:46.003Z,12
2022-11-14T18:39:51.673Z,17
2022-11-14T18:49:57.728Z,11
2022-11-14T19:00:04.329Z,10
2022-11-14T19:10:09.302Z,11
2022-11-14T19:20:15.015Z,12
2022-11-14T19:30:18.895Z,11
2022-11-14T19:40:27.078Z,17
2022-11-14T19:50:34.144Z,9
2022-11-14T20:00:38.988Z,7
2022-11-14T20:10:44.684Z,7
2022-11-14T20:20:47.964Z,9
2022-11-14T20:30:53.666Z,8
2022-11-14T20:51:06.116Z,9
2022-11-14T21:01:12.873Z,10
2022-11-14T21:11:18.443Z,9
2022-11-14T21:21:25.265Z,10
2022-11-14T21:31:30.035Z,6
2022-11-14T21:41:35.759Z,7
2022-11-14T21:51:41.644Z,8
2022-11-14T22:01:47.769Z,6
2022-11-14T22:11:54.326Z,7
2022-11-14T22:21:59.638Z,7
2022-11-14T22:32:05.440Z,5
2022-11-14T22:42:19.009Z,6
2022-11-14T22:52:17.281Z,5
2022-11-14T23:02:25.382Z,4
2022-11-14T23:12:32.475Z,4
2022-11-14T23:22:38.880Z,5
2022-11-14T23:32:44.163Z,6
2022-11-14T23:42:50.317Z,6
2022-11-14T23:52:56.136Z,7
